createdAt,value
2022-08-09T00:01:27.822Z,16.20
2022-08-09T00:04:25.123Z,20.60
2022-08-09T00:06:56.473Z,14.30
2022-08-09T00:09:24.229Z,18.10
2022-08-09T00:12:03.123Z,11.50
2022-08-09T00:14:38.013Z,16.70
2022-08-09T00:17:05.556Z,25.70
2022-08-09T00:19:32.226Z,26.30
2022-08-09T00:22:00.869Z,23.70
2022-08-09T00:24:32.085Z,1.00
2022-08-09T00:26:59.851Z,25.70
2022-08-09T00:29:39.652Z,29.60
2022-08-09T00:32:14.339Z,34.00
2022-08-09T00:34:52.849Z,35.00
2022-08-09T00:37:19.639Z,1.00
2022-08-09T00:40:12.392Z,6.80
2022-08-09T00:44:10.305Z,1.00
2022-08-09T00:45:20.334Z,10.70
2022-08-09T00:47:47.684Z,1.00
2022-08-09T00:50:15.205Z,3.00
2022-08-09T00:52:42.249Z,1.00
2022-08-09T00:55:16.639Z,1.00
2022-08-09T00:57:43.651Z,1.00
2022-08-09T01:00:22.092Z,29.50
2022-08-09T01:02:51.861Z,1.00
2022-08-09T01:05:22.251Z,2.40
2022-08-09T01:08:11.392Z,39.40
2022-08-09T01:10:54.004Z,1.00
2022-08-09T01:13:23.771Z,1.00
2022-08-09T01:15:59.309Z,1.00
2022-08-09T01:18:31.324Z,9.80
2022-08-09T01:21:01.126Z,1.00
2022-08-09T01:24:02.902Z,1.00
2022-08-09T01:26:36.251Z,21.30
2022-08-09T01:29:04.280Z,13.70
2022-08-09T01:32:32.231Z,21.70
2022-08-09T01:34:21.627Z,11.10
2022-08-09T01:36:49.286Z,1.00
2022-08-09T01:39:16.804Z,1.00
2022-08-09T01:41:53.752Z,1.00
2022-08-09T01:44:27.573Z,1.00
2022-08-09T01:46:54.320Z,10.90
2022-08-09T01:49:24.076Z,1.00
2022-08-09T01:51:58.604Z,1.00
2022-08-09T01:54:42.051Z,1.00
2022-08-09T01:57:14.704Z,1.00
2022-08-09T01:59:52.066Z,1.70
2022-08-09T02:02:29.966Z,1.00
2022-08-09T02:05:04.678Z,1.00
2022-08-09T02:08:35.549Z,22.30
2022-08-09T02:10:29.734Z,25.10
2022-08-09T02:12:57.838Z,1.00
2022-08-09T02:15:27.218Z,1.00
2022-08-09T02:18:15.136Z,1.00
2022-08-09T02:20:45.458Z,6.30
2022-08-09T02:23:19.410Z,15.40
2022-08-09T02:25:52.860Z,1.00
2022-08-09T02:28:26.963Z,1.00
2022-08-09T02:30:58.463Z,1.00
2022-08-09T02:33:58.141Z,1.30
2022-08-09T02:36:15.888Z,11.90
2022-08-09T02:38:52.986Z,1.00
2022-08-09T02:41:22.653Z,2.40
2022-08-09T02:43:54.579Z,1.00
2022-08-09T02:46:27.905Z,3.10
2022-08-09T02:48:58.840Z,5.50
2022-08-09T02:51:27.857Z,1.00
2022-08-09T02:54:05.136Z,2.30
2022-08-09T02:56:33.342Z,1.00
2022-08-09T02:59:02.194Z,1.00
2022-08-09T03:01:58.502Z,1.00
2022-08-09T03:04:19.602Z,35.40
2022-08-09T03:06:48.957Z,24.00
2022-08-09T03:09:17.430Z,1.00
2022-08-09T03:12:06.556Z,1.00
2022-08-09T03:14:32.147Z,1.00
2022-08-09T03:17:01.748Z,1.00
2022-08-09T03:19:58.909Z,1.00
2022-08-09T03:22:30.131Z,1.00
2022-08-09T03:25:21.637Z,7.40
2022-08-09T03:27:47.372Z,1.00
2022-08-09T03:30:29.240Z,1.00
2022-08-09T03:32:57.027Z,1.00
2022-08-09T03:36:11.659Z,1.00
2022-08-09T03:38:28.995Z,1.00
2022-08-09T03:40:56.042Z,1.00
2022-08-09T03:43:22.937Z,1.00
2022-08-09T03:46:05.304Z,1.00
2022-08-09T03:48:36.864Z,1.00
2022-08-09T03:51:55.509Z,1.00
2022-08-09T03:53:57.846Z,1.90
2022-08-09T03:56:26.685Z,1.00
2022-08-09T03:58:54.682Z,1.00
2022-08-09T04:01:21.446Z,3.70
2022-08-09T04:04:01.508Z,4.30
2022-08-09T04:06:30.520Z,1.00
2022-08-09T04:08:57.215Z,11.80
2022-08-09T04:11:23.859Z,1.00
2022-08-09T04:14:37.563Z,1.00
2022-08-09T04:16:38.872Z,1.00
2022-08-09T04:19:11.155Z,1.00
2022-08-09T04:21:42.659Z,1.00
2022-08-09T04:24:09.311Z,1.00
2022-08-09T04:26:38.447Z,1.00
2022-08-09T04:29:10.901Z,1.00
2022-08-09T04:31:47.040Z,1.00
2022-08-09T04:34:14.253Z,1.00
2022-08-09T04:36:50.355Z,1.00
2022-08-09T04:39:17.222Z,1.00
2022-08-09T04:41:44.336Z,20.60
2022-08-09T04:44:14.541Z,1.00
2022-08-09T04:46:59.121Z,11.20
2022-08-09T04:49:52.755Z,1.00
2022-08-09T04:52:22.002Z,1.00
2022-08-09T04:54:53.925Z,1.00
2022-08-09T04:57:24.053Z,1.00
2022-08-09T04:59:52.367Z,1.00
2022-08-09T05:02:19.048Z,1.00
2022-08-09T05:04:47.372Z,1.00
2022-08-09T05:07:19.172Z,1.00
2022-08-09T05:09:50.100Z,1.00
2022-08-09T05:12:17.022Z,1.00
2022-08-09T05:14:43.704Z,1.00
2022-08-09T05:18:36.714Z,1.00
2022-08-09T05:19:58.434Z,1.00
2022-08-09T05:22:33.266Z,1.00
2022-08-09T05:25:02.559Z,7.80
2022-08-09T05:27:31.047Z,1.00
2022-08-09T05:29:57.948Z,1.00
2022-08-09T05:32:26.130Z,1.00
2022-08-09T05:34:56.978Z,1.00
2022-08-09T05:37:23.934Z,1.00
2022-08-09T05:39:52.413Z,1.00
2022-08-09T05:42:33.405Z,1.00
2022-08-09T05:45:01.031Z,1.00
2022-08-09T05:47:30.169Z,1.00
2022-08-09T05:50:30.611Z,1.00
2022-08-09T05:52:44.366Z,1.00
2022-08-09T05:55:21.119Z,1.00
2022-08-09T05:57:51.072Z,1.00
2022-08-09T06:00:23.295Z,1.00
2022-08-09T06:02:50.196Z,1.00
2022-08-09T06:05:31.108Z,1.00
2022-08-09T06:08:09.012Z,1.00
2022-08-09T06:10:40.679Z,1.00
2022-08-09T06:13:18.292Z,1.00
2022-08-09T06:15:47.217Z,1.00
2022-08-09T06:18:17.839Z,1.00
2022-08-09T06:20:54.160Z,1.00
2022-08-09T06:23:21.612Z,1.00
2022-08-09T06:25:49.237Z,1.00
2022-08-09T06:28:16.044Z,1.00
2022-08-09T06:30:43.360Z,1.00
2022-08-09T06:33:30.514Z,1.00
2022-08-09T06:35:58.432Z,1.00
2022-08-09T06:38:32.161Z,2.40
2022-08-09T06:41:04.817Z,1.00
2022-08-09T06:43:45.320Z,1.00
2022-08-09T06:46:38.923Z,1.00
2022-08-09T06:49:00.377Z,2.80
2022-08-09T06:51:28.102Z,1.00
2022-08-09T06:53:55.164Z,1.00
2022-08-09T06:56:21.871Z,1.00
2022-08-09T07:00:51.173Z,15.80
2022-08-09T07:01:54.144Z,53.90
2022-08-09T07:04:25.159Z,22.80
2022-08-09T07:06:59.918Z,22.20
2022-08-09T07:09:56.535Z,21.40
2022-08-09T07:12:18.147Z,8.00
2022-08-09T07:14:46.009Z,5.20
2022-08-09T07:17:19.079Z,8.70
2022-08-09T07:19:48.129Z,8.10
2022-08-09T07:22:18.175Z,22.70
2022-08-09T07:24:49.369Z,6.20
2022-08-09T07:27:26.710Z,7.10
2022-08-09T07:30:01.554Z,67.30
2022-08-09T07:32:32.174Z,1.00
2022-08-09T07:34:59.453Z,39.10
2022-08-09T07:37:26.143Z,99.90
2022-08-09T07:39:53.723Z,8.00
2022-08-09T07:42:32.600Z,99.90
2022-08-09T07:45:06.462Z,69.80
2022-08-09T07:47:49.288Z,35.90
2022-08-09T07:50:34.983Z,57.20
2022-08-09T07:53:04.801Z,26.10
2022-08-09T07:55:41.340Z,13.20
2022-08-09T07:58:18.711Z,28.40
2022-08-09T08:00:58.759Z,21.00
2022-08-09T08:03:33.264Z,17.70
2022-08-09T08:06:04.438Z,79.20
2022-08-09T08:09:01.314Z,99.80
2022-08-09T08:12:24.679Z,42.90
2022-08-09T08:14:06.311Z,36.80
2022-08-09T08:16:33.295Z,99.90
2022-08-09T08:19:02.603Z,22.30
2022-08-09T08:21:30.447Z,59.50
2022-08-09T08:23:57.114Z,71.00
2022-08-09T08:26:54.800Z,56.50
2022-08-09T08:29:15.064Z,44.10
2022-08-09T08:32:05.555Z,91.00
2022-08-09T08:34:34.375Z,53.50
2022-08-09T08:37:01.963Z,61.50
2022-08-09T08:39:28.844Z,74.00
2022-08-09T08:41:58.960Z,52.40
2022-08-09T08:44:29.532Z,47.00
2022-08-09T08:47:02.439Z,99.10
2022-08-09T08:49:38.703Z,99.90
2022-08-09T08:52:52.940Z,53.10
2022-08-09T08:55:06.665Z,78.30
2022-08-09T08:57:35.108Z,99.90
2022-08-09T09:00:02.404Z,99.90
2022-08-09T09:02:35.399Z,94.40
2022-08-09T09:05:03.015Z,99.90
2022-08-09T09:07:37.098Z,99.90
2022-08-09T09:10:10.205Z,99.90
2022-08-09T09:12:37.135Z,99.90
2022-08-09T09:15:06.012Z,99.90
2022-08-09T09:17:49.515Z,99.90
2022-08-09T09:20:21.348Z,99.90
2022-08-09T09:22:55.750Z,99.90
2022-08-09T09:26:04.292Z,99.90
2022-08-09T09:28:21.527Z,99.90
2022-08-09T09:31:17.537Z,99.90
2022-08-09T09:34:14.711Z,99.90
2022-08-09T09:36:46.692Z,99.90
2022-08-09T09:39:23.365Z,99.90
2022-08-09T09:41:50.945Z,99.90
2022-08-09T09:44:27.648Z,99.90
2022-08-09T09:47:04.362Z,99.90
2022-08-09T09:50:07.465Z,99.90
2022-08-09T09:52:36.831Z,99.90
2022-08-09T09:55:27.524Z,99.90
2022-08-09T09:58:18.649Z,99.90
2022-08-09T10:00:54.568Z,99.90
2022-08-09T10:03:44.082Z,99.90
2022-08-09T10:06:12.776Z,99.90
2022-08-09T10:08:54.632Z,99.90
2022-08-09T10:11:59.105Z,99.90
2022-08-09T10:14:30.362Z,99.90
2022-08-09T10:17:24.066Z,99.90
2022-08-09T10:19:46.814Z,99.90
2022-08-09T10:22:29.258Z,99.90
2022-08-09T10:24:58.427Z,99.90
2022-08-09T10:27:34.742Z,99.90
2022-08-09T10:30:27.184Z,99.90
2022-08-09T10:32:56.092Z,99.90
2022-08-09T10:35:23.294Z,99.90
2022-08-09T10:37:53.301Z,99.90
2022-08-09T10:40:33.431Z,99.90
2022-08-09T10:43:04.597Z,99.90
2022-08-09T10:45:42.375Z,99.90
2022-08-09T10:48:48.458Z,99.90
2022-08-09T10:51:29.533Z,99.90
2022-08-09T10:54:12.132Z,99.90
2022-08-09T10:56:40.124Z,99.90
2022-08-09T10:59:23.135Z,99.90
2022-08-09T11:03:11.444Z,99.90
2022-08-09T11:04:37.409Z,99.90
2022-08-09T11:07:22.424Z,99.90
2022-08-09T11:09:49.668Z,99.90
2022-08-09T11:12:20.102Z,99.90
2022-08-09T11:14:54.798Z,99.90
2022-08-09T11:17:22.738Z,99.90
2022-08-09T11:20:12.108Z,99.90
2022-08-09T11:22:41.122Z,99.90
2022-08-09T11:25:09.785Z,99.90
2022-08-09T11:28:03.821Z,99.90
2022-08-09T11:30:33.414Z,99.90
2022-08-09T11:33:10.510Z,99.90
2022-08-09T11:35:49.909Z,99.90
2022-08-09T11:38:28.581Z,99.90
2022-08-09T11:41:23.188Z,99.90
2022-08-09T11:43:51.734Z,99.90
2022-08-09T11:46:26.730Z,99.90
2022-08-09T11:49:00.984Z,99.90
2022-08-09T11:53:03.268Z,99.90
2022-08-09T11:54:40.023Z,99.90
2022-08-09T11:57:28.440Z,99.90
2022-08-09T12:00:13.264Z,99.90
2022-08-09T12:02:43.942Z,99.90
2022-08-09T12:05:23.037Z,99.90
2022-08-09T12:07:50.251Z,99.90
2022-08-09T12:10:38.462Z,99.90
2022-08-09T12:14:08.991Z,99.90
2022-08-09T12:15:58.769Z,99.90
2022-08-09T12:18:29.625Z,99.90
2022-08-09T12:20:59.188Z,99.90
2022-08-09T12:23:56.243Z,99.90
2022-08-09T12:26:19.750Z,99.90
2022-08-09T12:29:14.151Z,99.90
2022-08-09T12:32:02.004Z,99.90
2022-08-09T12:34:37.720Z,99.90
2022-08-09T12:37:22.255Z,99.90
2022-08-09T12:40:05.832Z,99.90
2022-08-09T12:42:32.986Z,99.90
2022-08-09T12:45:00.344Z,99.90
2022-08-09T12:47:27.632Z,99.90
2022-08-09T12:50:20.028Z,99.90
2022-08-09T12:53:09.505Z,99.90
2022-08-09T12:56:13.964Z,99.90
2022-08-09T12:58:27.694Z,99.90
2022-08-09T13:00:55.052Z,99.90
2022-08-09T13:03:53.123Z,99.90
2022-08-09T13:06:34.369Z,99.90
2022-08-09T13:09:08.186Z,99.90
2022-08-09T13:11:39.556Z,99.90
2022-08-09T13:14:42.090Z,99.90
2022-08-09T13:16:58.034Z,99.90
2022-08-09T13:20:07.327Z,99.90
2022-08-09T13:22:36.844Z,99.90
2022-08-09T13:25:12.176Z,99.90
2022-08-09T13:27:55.118Z,99.90
2022-08-09T13:30:50.969Z,99.90
2022-08-09T13:33:11.535Z,99.90
2022-08-09T13:36:24.232Z,99.90
2022-08-09T13:38:51.458Z,99.90
2022-08-09T13:41:58.475Z,99.90
2022-08-09T13:44:07.908Z,99.90
2022-08-09T13:47:15.217Z,99.90
2022-08-09T13:49:21.531Z,99.90
2022-08-09T13:52:01.403Z,99.90
2022-08-09T13:54:30.190Z,99.90
2022-08-09T13:56:57.241Z,99.90
2022-08-09T13:59:25.694Z,99.90
2022-08-09T14:02:01.350Z,99.90
2022-08-09T14:04:30.436Z,99.90
2022-08-09T14:06:58.051Z,99.90
2022-08-09T14:09:25.458Z,99.90
2022-08-09T14:11:55.912Z,99.90
2022-08-09T14:14:27.063Z,99.90
2022-08-09T14:16:56.661Z,99.90
2022-08-09T14:19:25.756Z,99.90
2022-08-09T14:21:57.027Z,99.90
2022-08-09T14:24:32.398Z,99.90
2022-08-09T14:27:01.243Z,99.90
2022-08-09T14:30:35.577Z,99.90
2022-08-09T14:32:16.164Z,99.90
2022-08-09T14:34:43.200Z,99.90
2022-08-09T14:37:11.538Z,99.90
2022-08-09T14:39:47.491Z,99.90
2022-08-09T14:42:39.374Z,99.90
2022-08-09T14:46:51.327Z,99.90
2022-08-09T14:47:58.390Z,99.90
2022-08-09T14:50:27.421Z,99.90
2022-08-09T14:52:54.105Z,99.90
2022-08-09T14:55:21.447Z,99.90
2022-08-09T14:57:48.978Z,99.90
2022-08-09T15:00:16.223Z,99.90
2022-08-09T15:02:42.895Z,99.90
2022-08-09T15:05:16.064Z,99.90
2022-08-09T15:07:45.332Z,99.90
2022-08-09T15:10:21.364Z,99.90
2022-08-09T15:12:52.665Z,99.90
2022-08-09T15:15:20.284Z,99.90
2022-08-09T15:17:52.545Z,99.90
2022-08-09T15:21:56.828Z,99.90
2022-08-09T15:24:02.109Z,99.90
2022-08-09T15:25:54.170Z,99.90
2022-08-09T15:28:27.554Z,99.90
2022-08-09T15:31:10.270Z,99.90
2022-08-09T15:34:27.344Z,99.90
2022-08-09T15:36:30.139Z,99.90
2022-08-09T15:39:00.473Z,99.90
2022-08-09T15:41:31.009Z,99.90
2022-08-09T15:44:02.278Z,99.90
2022-08-09T15:46:34.285Z,99.90
2022-08-09T15:49:07.916Z,99.90
2022-08-09T15:52:02.886Z,99.90
2022-08-09T15:54:43.109Z,99.90
2022-08-09T15:57:13.515Z,99.90
2022-08-09T15:59:40.288Z,99.90
2022-08-09T16:02:09.321Z,99.90
2022-08-09T16:04:39.948Z,99.90
2022-08-09T16:07:09.820Z,99.90
2022-08-09T16:10:02.135Z,99.90
2022-08-09T16:12:30.571Z,99.90
2022-08-09T16:14:57.825Z,99.90
2022-08-09T16:17:28.857Z,99.90
2022-08-09T16:20:04.747Z,99.90
2022-08-09T16:22:33.777Z,99.90
2022-08-09T16:25:02.522Z,99.90
2022-08-09T16:27:29.837Z,99.90
2022-08-09T16:30:09.164Z,99.90
2022-08-09T16:33:01.658Z,99.90
2022-08-09T16:35:57.606Z,99.90
2022-08-09T16:38:15.214Z,99.90
2022-08-09T16:40:45.057Z,99.90
2022-08-09T16:43:12.410Z,99.90
2022-08-09T16:45:44.403Z,99.90
2022-08-09T16:48:42.024Z,99.90
2022-08-09T16:51:08.113Z,99.90
2022-08-09T16:53:36.117Z,99.90
2022-08-09T16:56:09.384Z,99.90
2022-08-09T16:58:39.860Z,99.90
2022-08-09T17:01:09.453Z,99.90
2022-08-09T17:03:37.278Z,99.90
2022-08-09T17:06:28.152Z,99.90
2022-08-09T17:08:58.149Z,99.90
2022-08-09T17:11:40.590Z,99.90
2022-08-09T17:14:15.912Z,99.90
2022-08-09T17:16:59.945Z,99.90
2022-08-09T17:19:47.348Z,99.90
2022-08-09T17:22:15.358Z,99.90
2022-08-09T17:24:47.943Z,99.90
2022-08-09T17:27:22.359Z,99.90
2022-08-09T17:29:49.973Z,99.90
2022-08-09T17:32:23.897Z,99.90
2022-08-09T17:35:10.803Z,99.90
2022-08-09T17:38:02.316Z,99.90
2022-08-09T17:40:26.612Z,99.90
2022-08-09T17:42:59.081Z,99.90
2022-08-09T17:45:56.886Z,99.90
2022-08-09T17:48:15.528Z,99.90
2022-08-09T17:50:56.513Z,99.90
2022-08-09T17:53:28.507Z,99.90
2022-08-09T17:56:03.383Z,99.90
2022-08-09T17:58:32.803Z,99.90
2022-08-09T18:01:01.714Z,99.90
2022-08-09T18:03:30.278Z,99.90
2022-08-09T18:06:00.772Z,99.90
2022-08-09T18:08:28.125Z,99.90
2022-08-09T18:11:02.142Z,99.90
2022-08-09T18:13:53.808Z,99.90
2022-08-09T18:16:28.954Z,99.90
2022-08-09T18:19:03.511Z,99.90
2022-08-09T18:21:31.842Z,99.90
2022-08-09T18:24:14.543Z,99.90
2022-08-09T18:26:46.218Z,99.90
2022-08-09T18:30:42.122Z,99.90
2022-08-09T18:32:03.374Z,99.90
2022-08-09T18:34:35.141Z,99.90
2022-08-09T18:37:10.481Z,99.90
2022-08-09T18:39:53.087Z,99.90
2022-08-09T18:42:19.981Z,99.90
2022-08-09T18:44:47.890Z,99.90
2022-08-09T18:47:17.566Z,99.90
2022-08-09T18:49:47.607Z,99.90
2022-08-09T18:52:24.831Z,99.90
2022-08-09T18:55:01.605Z,99.90
2022-08-09T18:57:38.378Z,99.90
2022-08-09T19:00:11.316Z,99.90
2022-08-09T19:02:43.390Z,99.90
2022-08-09T19:05:19.798Z,99.90
2022-08-09T19:08:03.861Z,99.90
2022-08-09T19:10:39.570Z,99.90
2022-08-09T19:13:20.051Z,99.90
2022-08-09T19:15:55.523Z,99.90
2022-08-09T19:18:33.998Z,99.90
2022-08-09T19:21:09.434Z,99.90
2022-08-09T19:24:32.714Z,99.90
2022-08-09T19:26:31.815Z,99.90
2022-08-09T19:29:01.910Z,99.90
2022-08-09T19:31:30.686Z,99.90
2022-08-09T19:34:21.553Z,99.90
2022-08-09T19:36:53.428Z,99.90
2022-08-09T19:39:42.946Z,99.90
2022-08-09T19:42:07.395Z,99.90
2022-08-09T19:44:34.314Z,99.90
2022-08-09T19:47:01.615Z,99.90
2022-08-09T19:50:09.219Z,99.90
2022-08-09T19:52:15.695Z,99.90
2022-08-09T19:54:45.021Z,99.90
2022-08-09T19:57:11.744Z,99.90
2022-08-09T19:59:59.961Z,99.90
2022-08-09T20:04:25.278Z,50.70
2022-08-09T20:05:15.229Z,98.30
2022-08-09T20:07:59.043Z,90.90
2022-08-09T20:10:34.537Z,99.90
2022-08-09T20:13:05.194Z,99.90
2022-08-09T20:16:32.901Z,99.90
2022-08-09T20:18:20.244Z,99.90
2022-08-09T20:20:50.534Z,99.90
2022-08-09T20:23:21.162Z,99.90
2022-08-09T20:25:52.144Z,99.90
2022-08-09T20:28:28.019Z,99.90
2022-08-09T20:31:02.863Z,99.90
2022-08-09T20:33:40.906Z,99.90
2022-08-09T20:36:08.647Z,99.90
2022-08-09T20:39:18.594Z,99.90
2022-08-09T20:41:34.782Z,99.90
2022-08-09T20:44:02.893Z,99.90
2022-08-09T20:46:34.069Z,99.90
2022-08-09T20:49:10.413Z,99.90
2022-08-09T20:51:40.960Z,99.90
2022-08-09T20:54:12.655Z,99.90
2022-08-09T20:56:43.971Z,99.90
2022-08-09T20:59:16.826Z,99.90
2022-08-09T21:01:50.620Z,99.90
2022-08-09T21:05:54.350Z,99.90
2022-08-09T21:07:11.618Z,99.90
2022-08-09T21:09:55.248Z,99.90
2022-08-09T21:15:12.990Z,99.90
2022-08-09T21:18:24.061Z,57.90
2022-08-09T21:20:29.895Z,99.90
2022-08-09T21:22:57.385Z,99.90
2022-08-09T21:25:44.041Z,96.40
2022-08-09T21:28:33.452Z,99.90
2022-08-09T21:31:16.596Z,99.90
2022-08-09T21:33:50.760Z,75.00
2022-08-09T21:36:23.556Z,83.70
2022-08-09T21:38:57.977Z,73.70
2022-08-09T21:42:05.739Z,99.90
2022-08-09T21:44:32.827Z,99.90
2022-08-09T21:47:07.675Z,99.90
2022-08-09T21:49:39.805Z,99.90
2022-08-09T21:52:14.914Z,93.70
2022-08-09T21:54:59.572Z,99.90
2022-08-09T21:57:38.997Z,99.90
2022-08-09T22:00:26.289Z,99.90
2022-08-09T22:02:59.408Z,99.90
2022-08-09T22:05:35.973Z,99.90
2022-08-09T22:08:05.158Z,99.90
2022-08-09T22:10:32.056Z,99.90
2022-08-09T22:12:59.990Z,99.90
2022-08-09T22:15:35.267Z,84.70
2022-08-09T22:18:03.950Z,99.90
2022-08-09T22:20:31.478Z,99.90
2022-08-09T22:22:58.553Z,99.90
2022-08-09T22:26:05.557Z,64.40
2022-08-09T22:28:12.508Z,99.90
2022-08-09T22:30:39.251Z,87.50
2022-08-09T22:33:17.399Z,99.90
2022-08-09T22:36:01.958Z,99.90
2022-08-09T22:38:30.277Z,99.90
2022-08-09T22:40:58.535Z,99.90
2022-08-09T22:44:00.688Z,99.90
2022-08-09T22:48:14.400Z,99.90
2022-08-09T22:49:01.723Z,99.90
2022-08-09T22:51:38.154Z,99.90
2022-08-09T22:54:05.479Z,99.90
2022-08-09T22:56:35.104Z,99.90
2022-08-09T22:59:05.453Z,99.90
2022-08-09T23:01:32.944Z,99.90
2022-08-09T23:04:03.623Z,99.90
2022-08-09T23:06:51.563Z,10.70
2022-08-09T23:09:18.731Z,18.90
2022-08-09T23:11:45.435Z,27.50
2022-08-09T23:14:17.233Z,25.50
2022-08-09T23:16:44.364Z,29.70
2022-08-09T23:19:11.100Z,92.20
2022-08-09T23:21:38.711Z,85.30
2022-08-09T23:24:07.311Z,99.90
2022-08-09T23:26:36.852Z,94.40
2022-08-09T23:29:05.058Z,90.60
2022-08-09T23:31:31.937Z,86.50
2022-08-09T23:33:58.689Z,99.90
2022-08-09T23:36:25.411Z,30.90
2022-08-09T23:38:52.095Z,30.50
2022-08-09T23:41:27.891Z,56.20
2022-08-09T23:43:59.956Z,58.00
2022-08-09T23:46:27.373Z,51.40
2022-08-09T23:48:54.042Z,32.90
2022-08-09T23:51:20.772Z,36.60
2022-08-09T23:53:47.462Z,38.80
2022-08-09T23:56:17.377Z,39.80
2022-08-09T23:59:04.180Z,45.40
